Terminal Aerodrome Forecast
Issued by NWS Albany, NY

Home | Current Version | Previous Version | Text Only | Print | Product List | Glossary On
Versions: 1 2 3 4 5 6 7 8 9 10 11 12
000
FTUS41 KALY 260534
TAFALB
TAF
KALB 260534Z 2606/2706 00000KT P6SM FEW250
     FM260800 00000KT 6SM BR MIFG SCT003
     FM261300 VRB05KT P6SM FEW035=

USA.gov is the U.S. government's official web portal to all federal, state and local government web resources and services.